sensor_id;sensor_type;location;lat;lon;timestamp;pressure;altitude;pressure_sealevel;temperature;humidity
56400;BME280;42298;53.638;9.876;2023-08-20T00:02:23;101936.22;;;20.38;70.75
56400;BME280;42298;53.638;9.876;2023-08-20T00:04:50;101923.22;;;20.27;70.88
56400;BME280;42298;53.638;9.876;2023-08-20T00:07:16;101923.56;;;20.17;71.13
56400;BME280;42298;53.638;9.876;2023-08-20T00:09:43;101924.53;;;20.10;71.12
56400;BME280;42298;53.638;9.876;2023-08-20T00:12:09;101939.94;;;20.09;71.28
56400;BME280;42298;53.638;9.876;2023-08-20T00:17:19;101945.47;;;20.01;71.78
56400;BME280;42298;53.638;9.876;2023-08-20T00:19:45;101946.13;;;20.03;71.63
56400;BME280;42298;53.638;9.876;2023-08-20T00:22:11;101945.47;;;20.01;71.81
56400;BME280;42298;53.638;9.876;2023-08-20T00:24:36;101950.63;;;19.96;71.35
56400;BME280;42298;53.638;9.876;2023-08-20T00:27:02;101942.84;;;19.86;71.66
56400;BME280;42298;53.638;9.876;2023-08-20T00:29:27;101967.50;;;19.98;71.62
56400;BME280;42298;53.638;9.876;2023-08-20T00:31:52;101952.88;;;19.92;71.68
56400;BME280;42298;53.638;9.876;2023-08-20T00:34:18;101947.47;;;19.92;71.79
56400;BME280;42298;53.638;9.876;2023-08-20T00:36:43;101955.78;;;19.91;71.05
56400;BME280;42298;53.638;9.876;2023-08-20T00:39:08;101955.66;;;19.77;70.88
56400;BME280;42298;53.638;9.876;2023-08-20T00:41:33;101958.84;;;19.66;71.18
56400;BME280;42298;53.638;9.876;2023-08-20T00:43:59;101960.03;;;19.63;71.58
56400;BME280;42298;53.638;9.876;2023-08-20T00:46:24;101959.44;;;19.68;72.05
56400;BME280;42298;53.638;9.876;2023-08-20T00:48:49;101962.25;;;19.75;72.00
56400;BME280;42298;53.638;9.876;2023-08-20T00:51:15;101959.63;;;19.81;71.81
56400;BME280;42298;53.638;9.876;2023-08-20T00:53:40;101955.66;;;19.77;71.44
56400;BME280;42298;53.638;9.876;2023-08-20T00:56:06;101957.44;;;19.70;70.80
56400;BME280;42298;53.638;9.876;2023-08-20T00:58:32;101947.09;;;19.59;70.59
56400;BME280;42298;53.638;9.876;2023-08-20T01:00:57;101951.34;;;19.47;70.90
56400;BME280;42298;53.638;9.876;2023-08-20T01:03:22;101959.38;;;19.40;71.14
56400;BME280;42298;53.638;9.876;2023-08-20T01:05:54;101957.69;;;19.39;71.71
56400;BME280;42298;53.638;9.876;2023-08-20T01:08:31;101960.84;;;19.42;71.02
56400;BME280;42298;53.638;9.876;2023-08-20T01:11:07;101953.31;;;19.38;71.10
56400;BME280;42298;53.638;9.876;2023-08-20T01:13:35;101953.41;;;19.30;71.26
56400;BME280;42298;53.638;9.876;2023-08-20T01:16:00;101957.50;;;19.26;71.40
56400;BME280;42298;53.638;9.876;2023-08-20T01:18:26;101954.06;;;19.17;71.02
56400;BME280;42298;53.638;9.876;2023-08-20T01:20:55;101959.31;;;19.03;70.83
56400;BME280;42298;53.638;9.876;2023-08-20T01:23:40;101962.38;;;19.00;71.08
56400;BME280;42298;53.638;9.876;2023-08-20T01:28:54;101966.75;;;19.01;71.52
56400;BME280;42298;53.638;9.876;2023-08-20T01:31:20;101974.75;;;19.10;71.71
56400;BME280;42298;53.638;9.876;2023-08-20T01:33:45;101958.94;;;19.07;71.08
56400;BME280;42298;53.638;9.876;2023-08-20T01:36:11;101951.31;;;18.95;71.21
56400;BME280;42298;53.638;9.876;2023-08-20T01:38:36;101960.44;;;18.94;71.80
56400;BME280;42298;53.638;9.876;2023-08-20T01:41:02;101958.00;;;18.99;71.38
56400;BME280;42298;53.638;9.876;2023-08-20T01:43:28;101951.13;;;18.97;70.78
56400;BME280;42298;53.638;9.876;2023-08-20T01:45:53;101959.97;;;18.91;70.85
56400;BME280;42298;53.638;9.876;2023-08-20T01:48:18;101959.34;;;18.89;71.63
56400;BME280;42298;53.638;9.876;2023-08-20T01:50:43;101955.84;;;18.95;70.93
56400;BME280;42298;53.638;9.876;2023-08-20T01:53:11;101958.69;;;18.87;70.45
56400;BME280;42298;53.638;9.876;2023-08-20T01:55:36;101966.47;;;18.81;70.67
56400;BME280;42298;53.638;9.876;2023-08-20T01:58:01;101964.69;;;18.74;70.94
56400;BME280;42298;53.638;9.876;2023-08-20T02:00:27;101963.47;;;18.76;71.86
56400;BME280;42298;53.638;9.876;2023-08-20T02:02:53;101963.59;;;18.83;71.16
56400;BME280;42298;53.638;9.876;2023-08-20T02:05:19;101958.84;;;18.85;70.85
56400;BME280;42298;53.638;9.876;2023-08-20T02:07:44;101953.50;;;18.77;70.72
56400;BME280;42298;53.638;9.876;2023-08-20T02:10:09;101962.63;;;18.76;70.70
56400;BME280;42298;53.638;9.876;2023-08-20T02:12:35;101954.69;;;18.59;70.62
56400;BME280;42298;53.638;9.876;2023-08-20T02:15:01;101963.06;;;18.50;70.70
56400;BME280;42298;53.638;9.876;2023-08-20T02:17:27;101963.44;;;18.47;71.23
56400;BME280;42298;53.638;9.876;2023-08-20T02:19:52;101965.47;;;18.45;71.57
56400;BME280;42298;53.638;9.876;2023-08-20T02:22:17;101968.47;;;18.50;71.14
56400;BME280;42298;53.638;9.876;2023-08-20T02:24:44;101966.31;;;18.45;71.02
56400;BME280;42298;53.638;9.876;2023-08-20T02:27:09;101976.28;;;18.45;70.97
56400;BME280;42298;53.638;9.876;2023-08-20T02:29:34;101968.25;;;18.36;70.87
56400;BME280;42298;53.638;9.876;2023-08-20T02:32:00;101962.47;;;18.25;71.39
56400;BME280;42298;53.638;9.876;2023-08-20T02:34:25;101974.34;;;18.30;71.33
56400;BME280;42298;53.638;9.876;2023-08-20T02:36:50;101966.16;;;18.24;71.33
56400;BME280;42298;53.638;9.876;2023-08-20T02:39:16;101960.09;;;18.22;71.88
56400;BME280;42298;53.638;9.876;2023-08-20T02:41:42;101965.25;;;18.31;71.43
56400;BME280;42298;53.638;9.876;2023-08-20T02:44:07;101967.97;;;18.31;71.16
56400;BME280;42298;53.638;9.876;2023-08-20T02:46:32;101959.38;;;18.28;71.32
56400;BME280;42298;53.638;9.876;2023-08-20T02:48:58;101963.94;;;18.27;71.28
56400;BME280;42298;53.638;9.876;2023-08-20T02:51:23;101963.47;;;18.24;71.29
56400;BME280;42298;53.638;9.876;2023-08-20T02:53:48;101962.81;;;18.22;71.20
56400;BME280;42298;53.638;9.876;2023-08-20T02:56:15;101963.56;;;18.15;71.32
56400;BME280;42298;53.638;9.876;2023-08-20T02:58:40;101954.06;;;18.19;71.81
56400;BME280;42298;53.638;9.876;2023-08-20T03:01:06;101956.03;;;18.26;71.17
56400;BME280;42298;53.638;9.876;2023-08-20T03:03:31;101960.97;;;18.22;71.08
56400;BME280;42298;53.638;9.876;2023-08-20T03:05:56;101965.94;;;18.10;70.95
56400;BME280;42298;53.638;9.876;2023-08-20T03:08:22;101967.50;;;18.05;71.26
56400;BME280;42298;53.638;9.876;2023-08-20T03:10:47;101974.72;;;18.04;71.26
56400;BME280;42298;53.638;9.876;2023-08-20T03:13:12;101976.00;;;17.93;71.12
56400;BME280;42298;53.638;9.876;2023-08-20T03:15:37;101976.22;;;17.84;71.64
56400;BME280;42298;53.638;9.876;2023-08-20T03:18:03;101974.88;;;17.79;72.01
56400;BME280;42298;53.638;9.876;2023-08-20T03:20:29;101971.72;;;17.76;71.87
56400;BME280;42298;53.638;9.876;2023-08-20T03:22:56;101986.69;;;17.78;72.01
56400;BME280;42298;53.638;9.876;2023-08-20T03:25:21;101978.44;;;17.80;72.12
56400;BME280;42298;53.638;9.876;2023-08-20T03:27:47;101980.63;;;17.85;72.36
56400;BME280;42298;53.638;9.876;2023-08-20T03:30:12;101976.22;;;17.84;72.18
56400;BME280;42298;53.638;9.876;2023-08-20T03:32:38;101976.06;;;17.85;71.92
56400;BME280;42298;53.638;9.876;2023-08-20T03:35:04;101970.00;;;17.83;71.62
56400;BME280;42298;53.638;9.876;2023-08-20T03:37:29;101973.53;;;17.84;71.83
56400;BME280;42298;53.638;9.876;2023-08-20T03:39:55;101979.44;;;17.79;72.25
56400;BME280;42298;53.638;9.876;2023-08-20T03:42:20;101976.91;;;17.77;72.27
56400;BME280;42298;53.638;9.876;2023-08-20T03:44:45;101988.22;;;17.73;71.95
56400;BME280;42298;53.638;9.876;2023-08-20T03:47:11;101986.44;;;17.65;72.31
56400;BME280;42298;53.638;9.876;2023-08-20T03:49:37;101993.31;;;17.68;72.56
56400;BME280;42298;53.638;9.876;2023-08-20T03:52:02;101993.16;;;17.69;72.30
56400;BME280;42298;53.638;9.876;2023-08-20T03:54:28;101994.84;;;17.62;72.64
56400;BME280;42298;53.638;9.876;2023-08-20T03:56:54;101998.72;;;17.59;72.71
56400;BME280;42298;53.638;9.876;2023-08-20T03:59:22;102007.00;;;17.58;72.90
56400;BME280;42298;53.638;9.876;2023-08-20T04:01:48;102007.63;;;17.68;73.26
56400;BME280;42298;53.638;9.876;2023-08-20T04:04:14;102007.09;;;17.73;73.58
56400;BME280;42298;53.638;9.876;2023-08-20T04:06:39;102006.22;;;17.81;73.76
56400;BME280;42298;53.638;9.876;2023-08-20T04:09:05;102011.56;;;17.89;73.85
56400;BME280;42298;53.638;9.876;2023-08-20T04:11:31;102009.84;;;17.96;73.80
56400;BME280;42298;53.638;9.876;2023-08-20T04:13:56;102015.53;;;18.01;73.43
56400;BME280;42298;53.638;9.876;2023-08-20T04:16:21;102022.91;;;18.07;73.58
56400;BME280;42298;53.638;9.876;2023-08-20T04:18:47;102027.63;;;18.05;73.56
56400;BME280;42298;53.638;9.876;2023-08-20T04:21:13;102020.38;;;18.06;73.74
56400;BME280;42298;53.638;9.876;2023-08-20T04:23:38;102019.00;;;18.10;73.70
56400;BME280;42298;53.638;9.876;2023-08-20T04:26:03;102019.19;;;18.08;73.62
56400;BME280;42298;53.638;9.876;2023-08-20T04:28:29;102021.06;;;18.08;73.14
56400;BME280;42298;53.638;9.876;2023-08-20T04:30:54;102026.59;;;18.06;73.66
56400;BME280;42298;53.638;9.876;2023-08-20T04:33:20;102017.53;;;18.07;73.55
56400;BME280;42298;53.638;9.876;2023-08-20T04:35:46;102026.28;;;18.09;73.44
56400;BME280;42298;53.638;9.876;2023-08-20T04:38:11;102021.88;;;18.08;73.40
56400;BME280;42298;53.638;9.876;2023-08-20T04:40:36;102025.91;;;18.12;73.07
56400;BME280;42298;53.638;9.876;2023-08-20T04:43:02;102022.19;;;18.13;73.50
56400;BME280;42298;53.638;9.876;2023-08-20T04:45:27;102028.88;;;18.17;73.21
56400;BME280;42298;53.638;9.876;2023-08-20T04:47:52;102021.84;;;18.16;73.59
56400;BME280;42298;53.638;9.876;2023-08-20T04:50:18;102020.47;;;18.20;73.50
56400;BME280;42298;53.638;9.876;2023-08-20T04:52:43;102018.06;;;18.26;73.56
56400;BME280;42298;53.638;9.876;2023-08-20T04:55:08;102011.94;;;18.32;73.98
56400;BME280;42298;53.638;9.876;2023-08-20T04:57:34;102011.22;;;18.38;73.93
56400;BME280;42298;53.638;9.876;2023-08-20T05:00:00;102007.88;;;18.36;73.99
56400;BME280;42298;53.638;9.876;2023-08-20T05:02:25;102010.69;;;18.43;74.38
56400;BME280;42298;53.638;9.876;2023-08-20T05:04:52;102004.56;;;18.49;74.50
56400;BME280;42298;53.638;9.876;2023-08-20T05:07:17;102002.50;;;18.51;74.42
56400;BME280;42298;53.638;9.876;2023-08-20T05:09:43;102007.16;;;18.57;74.78
56400;BME280;42298;53.638;9.876;2023-08-20T05:12:08;102014.91;;;18.60;74.77
56400;BME280;42298;53.638;9.876;2023-08-20T05:14:33;102009.69;;;18.58;74.50
56400;BME280;42298;53.638;9.876;2023-08-20T05:16:59;102006.16;;;18.58;75.07
56400;BME280;42298;53.638;9.876;2023-08-20T05:19:24;102000.22;;;18.63;75.13
56400;BME280;42298;53.638;9.876;2023-08-20T05:21:49;102017.81;;;18.73;75.23
56400;BME280;42298;53.638;9.876;2023-08-20T05:24:15;102003.81;;;18.78;75.34
56400;BME280;42298;53.638;9.876;2023-08-20T05:26:40;101990.59;;;18.83;75.28
56400;BME280;42298;53.638;9.876;2023-08-20T05:29:05;101986.50;;;18.87;75.34
56400;BME280;42298;53.638;9.876;2023-08-20T05:31:31;101991.34;;;18.92;75.53
56400;BME280;42298;53.638;9.876;2023-08-20T05:33:56;101982.69;;;18.96;75.38
56400;BME280;42298;53.638;9.876;2023-08-20T05:36:23;101989.94;;;18.96;75.60
56400;BME280;42298;53.638;9.876;2023-08-20T05:38:48;101999.69;;;18.97;75.70
56400;BME280;42298;53.638;9.876;2023-08-20T05:41:14;102002.88;;;19.00;75.68
56400;BME280;42298;53.638;9.876;2023-08-20T05:43:39;102011.47;;;19.04;75.63
56400;BME280;42298;53.638;9.876;2023-08-20T05:46:04;102002.97;;;19.07;75.94
56400;BME280;42298;53.638;9.876;2023-08-20T05:48:30;102007.25;;;19.16;75.89
56400;BME280;42298;53.638;9.876;2023-08-20T05:50:55;102022.06;;;19.20;75.86
56400;BME280;42298;53.638;9.876;2023-08-20T05:53:22;102025.59;;;19.21;75.74
56400;BME280;42298;53.638;9.876;2023-08-20T05:55:47;102016.41;;;19.15;75.98
56400;BME280;42298;53.638;9.876;2023-08-20T05:58:13;102025.41;;;19.22;76.03
56400;BME280;42298;53.638;9.876;2023-08-20T06:00:38;102029.59;;;19.25;75.81
56400;BME280;42298;53.638;9.876;2023-08-20T06:03:03;102021.50;;;19.25;76.05
56400;BME280;42298;53.638;9.876;2023-08-20T06:05:29;102022.63;;;19.31;75.90
56400;BME280;42298;53.638;9.876;2023-08-20T06:07:54;102022.41;;;19.32;76.09
56400;BME280;42298;53.638;9.876;2023-08-20T06:10:19;102035.91;;;19.32;75.51
56400;BME280;42298;53.638;9.876;2023-08-20T06:12:45;102034.81;;;19.27;75.98
56400;BME280;42298;53.638;9.876;2023-08-20T06:15:10;102036.47;;;19.28;76.51
56400;BME280;42298;53.638;9.876;2023-08-20T06:17:35;102029.59;;;19.25;75.93
56400;BME280;42298;53.638;9.876;2023-08-20T06:20:01;102028.47;;;19.34;75.98
56400;BME280;42298;53.638;9.876;2023-08-20T06:22:26;102025.41;;;19.37;75.90
56400;BME280;42298;53.638;9.876;2023-08-20T06:24:51;102017.88;;;19.33;76.39
56400;BME280;42298;53.638;9.876;2023-08-20T06:27:17;102022.81;;;19.44;76.66
56400;BME280;42298;53.638;9.876;2023-08-20T06:29:42;102016.25;;;19.53;76.62
56400;BME280;42298;53.638;9.876;2023-08-20T06:32:08;102013.09;;;19.50;76.48
56400;BME280;42298;53.638;9.876;2023-08-20T06:34:34;102025.53;;;19.65;76.33
56400;BME280;42298;53.638;9.876;2023-08-20T06:36:59;102031.06;;;19.72;75.88
56400;BME280;42298;53.638;9.876;2023-08-20T06:39:25;102039.16;;;19.72;76.12
56400;BME280;42298;53.638;9.876;2023-08-20T06:41:50;102024.53;;;19.67;75.94
56400;BME280;42298;53.638;9.876;2023-08-20T06:44:15;102029.47;;;19.63;76.11
56400;BME280;42298;53.638;9.876;2023-08-20T06:46:41;102036.09;;;19.60;76.22
56400;BME280;42298;53.638;9.876;2023-08-20T06:49:06;102047.81;;;19.68;76.54
56400;BME280;42298;53.638;9.876;2023-08-20T06:51:32;102046.63;;;19.70;76.36
56400;BME280;42298;53.638;9.876;2023-08-20T06:53:57;102043.91;;;19.70;76.23
56400;BME280;42298;53.638;9.876;2023-08-20T06:56:23;102059.03;;;19.79;76.33
56400;BME280;42298;53.638;9.876;2023-08-20T06:58:48;102048.00;;;19.81;76.59
56400;BME280;42298;53.638;9.876;2023-08-20T07:01:14;102060.91;;;20.00;76.86
56400;BME280;42298;53.638;9.876;2023-08-20T07:03:43;102057.13;;;20.16;76.25
56400;BME280;42298;53.638;9.876;2023-08-20T07:06:09;102060.28;;;20.20;75.80
56400;BME280;42298;53.638;9.876;2023-08-20T07:08:35;102066.47;;;20.14;75.56
56400;BME280;42298;53.638;9.876;2023-08-20T07:11:02;102077.84;;;20.09;75.69
56400;BME280;42298;53.638;9.876;2023-08-20T07:13:27;102070.78;;;20.08;75.86
56400;BME280;42298;53.638;9.876;2023-08-20T07:15:52;102067.88;;;20.10;76.14
56400;BME280;42298;53.638;9.876;2023-08-20T07:18:17;102072.69;;;20.14;75.85
56400;BME280;42298;53.638;9.876;2023-08-20T07:20:43;102063.25;;;20.25;75.99
56400;BME280;42298;53.638;9.876;2023-08-20T07:23:09;102072.97;;;20.41;75.82
56400;BME280;42298;53.638;9.876;2023-08-20T07:25:39;102069.38;;;20.55;75.28
56400;BME280;42298;53.638;9.876;2023-08-20T07:28:08;102075.06;;;20.60;74.68
56400;BME280;42298;53.638;9.876;2023-08-20T07:30:36;102073.41;;;20.44;73.95
56400;BME280;42298;53.638;9.876;2023-08-20T07:33:03;102072.31;;;20.39;74.42
56400;BME280;42298;53.638;9.876;2023-08-20T07:35:28;102076.31;;;20.43;74.67
56400;BME280;42298;53.638;9.876;2023-08-20T07:37:54;102078.41;;;20.62;74.43
56400;BME280;42298;53.638;9.876;2023-08-20T07:40:20;102077.91;;;20.80;74.10
56400;BME280;42298;53.638;9.876;2023-08-20T07:42:45;102079.44;;;20.90;74.17
56400;BME280;42298;53.638;9.876;2023-08-20T07:45:11;102082.25;;;21.03;73.96
56400;BME280;42298;53.638;9.876;2023-08-20T07:47:37;102077.13;;;21.15;72.77
56400;BME280;42298;53.638;9.876;2023-08-20T07:50:03;102083.44;;;21.22;72.85
56400;BME280;42298;53.638;9.876;2023-08-20T07:52:29;102073.03;;;21.25;72.46
56400;BME280;42298;53.638;9.876;2023-08-20T07:54:55;102083.25;;;21.23;72.27
56400;BME280;42298;53.638;9.876;2023-08-20T07:57:22;102089.28;;;21.25;72.52
56400;BME280;42298;53.638;9.876;2023-08-20T07:59:48;102083.47;;;21.28;72.03
56400;BME280;42298;53.638;9.876;2023-08-20T08:02:14;102085.09;;;21.23;71.88
56400;BME280;42298;53.638;9.876;2023-08-20T08:04:39;102092.44;;;21.29;71.99
56400;BME280;42298;53.638;9.876;2023-08-20T08:07:04;102093.53;;;21.35;71.98
56400;BME280;42298;53.638;9.876;2023-08-20T08:09:31;102099.47;;;21.52;70.37
56400;BME280;42298;53.638;9.876;2023-08-20T08:11:58;102093.25;;;21.58;71.48
56400;BME280;42298;53.638;9.876;2023-08-20T08:14:23;102096.00;;;21.64;71.21
56400;BME280;42298;53.638;9.876;2023-08-20T08:16:49;102097.66;;;21.59;70.29
56400;BME280;42298;53.638;9.876;2023-08-20T08:19:17;102102.88;;;21.67;69.96
56400;BME280;42298;53.638;9.876;2023-08-20T08:21:43;102109.56;;;21.71;70.10
56400;BME280;42298;53.638;9.876;2023-08-20T08:24:10;102097.03;;;21.63;69.82
56400;BME280;42298;53.638;9.876;2023-08-20T08:26:35;102101.66;;;21.76;69.61
56400;BME280;42298;53.638;9.876;2023-08-20T08:29:02;102115.63;;;21.73;69.19
56400;BME280;42298;53.638;9.876;2023-08-20T08:31:27;102107.31;;;21.75;69.56
56400;BME280;42298;53.638;9.876;2023-08-20T08:33:53;102109.19;;;21.74;68.77
56400;BME280;42298;53.638;9.876;2023-08-20T08:36:18;102101.66;;;21.76;68.80
56400;BME280;42298;53.638;9.876;2023-08-20T08:38:44;102108.81;;;21.90;68.53
56400;BME280;42298;53.638;9.876;2023-08-20T08:41:12;102107.59;;;22.00;68.64
56400;BME280;42298;53.638;9.876;2023-08-20T08:43:39;102102.63;;;22.10;68.17
56400;BME280;42298;53.638;9.876;2023-08-20T08:46:12;102106.59;;;22.07;67.52
56400;BME280;42298;53.638;9.876;2023-08-20T08:48:40;102104.72;;;22.08;68.06
56400;BME280;42298;53.638;9.876;2023-08-20T08:51:05;102103.75;;;22.29;68.11
56400;BME280;42298;53.638;9.876;2023-08-20T08:53:32;102101.28;;;22.41;67.11
56400;BME280;42298;53.638;9.876;2023-08-20T08:55:58;102091.66;;;22.45;66.72
56400;BME280;42298;53.638;9.876;2023-08-20T08:58:23;102091.91;;;22.63;66.97
56400;BME280;42298;53.638;9.876;2023-08-20T09:00:49;102095.88;;;22.81;66.34
56400;BME280;42298;53.638;9.876;2023-08-20T09:03:14;102092.28;;;22.87;65.90
56400;BME280;42298;53.638;9.876;2023-08-20T09:05:49;102096.50;;;22.96;65.32
56400;BME280;42298;53.638;9.876;2023-08-20T09:08:22;102098.78;;;23.06;64.54
56400;BME280;42298;53.638;9.876;2023-08-20T09:10:52;102100.25;;;23.15;64.64
56400;BME280;42298;53.638;9.876;2023-08-20T09:13:17;102103.78;;;23.22;64.82
56400;BME280;42298;53.638;9.876;2023-08-20T09:15:45;102096.84;;;23.33;64.46
56400;BME280;42298;53.638;9.876;2023-08-20T09:18:11;102102.06;;;23.41;63.98
56400;BME280;42298;53.638;9.876;2023-08-20T09:20:37;102102.69;;;23.43;63.81
56400;BME280;42298;53.638;9.876;2023-08-20T09:23:02;102099.34;;;23.48;63.28
56400;BME280;42298;53.638;9.876;2023-08-20T09:25:28;102094.97;;;23.47;61.02
56400;BME280;42298;53.638;9.876;2023-08-20T09:27:54;102108.91;;;23.64;62.67
56400;BME280;42298;53.638;9.876;2023-08-20T09:30:19;102100.56;;;23.59;61.31
56400;BME280;42298;53.638;9.876;2023-08-20T09:33:10;102100.75;;;23.64;61.82
56400;BME280;42298;53.638;9.876;2023-08-20T09:35:36;102098.19;;;23.69;62.14
56400;BME280;42298;53.638;9.876;2023-08-20T09:38:03;102099.69;;;23.78;61.54
56400;BME280;42298;53.638;9.876;2023-08-20T09:40:29;102090.41;;;23.92;61.67
56400;BME280;42298;53.638;9.876;2023-08-20T09:42:55;102098.28;;;24.07;60.85
56400;BME280;42298;53.638;9.876;2023-08-20T09:45:21;102098.47;;;24.06;61.01
56400;BME280;42298;53.638;9.876;2023-08-20T09:47:49;102088.22;;;24.08;60.24
56400;BME280;42298;53.638;9.876;2023-08-20T09:50:17;102093.84;;;24.13;60.29
56400;BME280;42298;53.638;9.876;2023-08-20T09:52:57;102085.91;;;24.11;60.60
56400;BME280;42298;53.638;9.876;2023-08-20T09:55:29;102094.03;;;24.18;60.27
56400;BME280;42298;53.638;9.876;2023-08-20T09:57:56;102086.28;;;24.15;60.67
56400;BME280;42298;53.638;9.876;2023-08-20T10:00:22;102077.69;;;24.18;59.26
56400;BME280;42298;53.638;9.876;2023-08-20T10:02:48;102079.06;;;24.34;60.99
56400;BME280;42298;53.638;9.876;2023-08-20T10:05:13;102080.44;;;24.50;60.52
56400;BME280;42298;53.638;9.876;2023-08-20T10:07:42;102087.47;;;24.64;60.34
56400;BME280;42298;53.638;9.876;2023-08-20T10:10:08;102079.50;;;24.63;58.34
56400;BME280;42298;53.638;9.876;2023-08-20T10:12:37;102072.00;;;24.58;59.12
56400;BME280;42298;53.638;9.876;2023-08-20T10:15:04;102078.94;;;24.54;58.68
56400;BME280;42298;53.638;9.876;2023-08-20T10:17:32;102076.16;;;24.61;59.18
56400;BME280;42298;53.638;9.876;2023-08-20T10:19:58;102077.69;;;24.75;58.07
56400;BME280;42298;53.638;9.876;2023-08-20T10:22:41;102074.84;;;24.88;57.76
56400;BME280;42298;53.638;9.876;2023-08-20T10:25:11;102075.81;;;25.01;57.38
56400;BME280;42298;53.638;9.876;2023-08-20T10:27:39;102072.88;;;25.02;56.01
56400;BME280;42298;53.638;9.876;2023-08-20T10:30:10;102071.63;;;24.98;56.98
56400;BME280;42298;53.638;9.876;2023-08-20T10:32:49;102075.13;;;25.05;56.89
56400;BME280;42298;53.638;9.876;2023-08-20T10:43:31;102070.94;;;25.28;55.45
56400;BME280;42298;53.638;9.876;2023-08-20T10:48:56;102073.50;;;25.23;54.11
56400;BME280;42298;53.638;9.876;2023-08-20T10:51:32;102072.38;;;25.30;53.99
56400;BME280;42298;53.638;9.876;2023-08-20T10:54:04;102076.16;;;25.29;55.14
56400;BME280;42298;53.638;9.876;2023-08-20T10:59:06;102072.38;;;25.30;55.47
56400;BME280;42298;53.638;9.876;2023-08-20T11:01:32;102071.84;;;25.40;55.91
56400;BME280;42298;53.638;9.876;2023-08-20T11:03:58;102070.94;;;25.46;54.35
56400;BME280;42298;53.638;9.876;2023-08-20T11:06:30;102072.38;;;25.49;54.47
56400;BME280;42298;53.638;9.876;2023-08-20T11:08:57;102083.41;;;25.72;55.49
56400;BME280;42298;53.638;9.876;2023-08-20T11:11:23;102081.34;;;25.86;55.09
56400;BME280;42298;53.638;9.876;2023-08-20T11:13:48;102079.28;;;26.00;55.24
56400;BME280;42298;53.638;9.876;2023-08-20T11:16:13;102082.38;;;26.04;54.17
56400;BME280;42298;53.638;9.876;2023-08-20T11:18:39;102079.19;;;26.07;54.40
56400;BME280;42298;53.638;9.876;2023-08-20T11:21:04;102080.41;;;26.11;54.70
56400;BME280;42298;53.638;9.876;2023-08-20T11:23:31;102076.88;;;26.22;53.37
56400;BME280;42298;53.638;9.876;2023-08-20T11:25:57;102065.56;;;26.18;53.27
56400;BME280;42298;53.638;9.876;2023-08-20T11:28:22;102078.44;;;26.30;53.25
56400;BME280;42298;53.638;9.876;2023-08-20T11:30:47;102077.00;;;26.39;52.92
56400;BME280;42298;53.638;9.876;2023-08-20T11:33:13;102077.41;;;26.42;52.98
56400;BME280;42298;53.638;9.876;2023-08-20T11:35:38;102076.16;;;26.57;53.23
56400;BME280;42298;53.638;9.876;2023-08-20T11:38:04;102071.75;;;26.68;52.41
56400;BME280;42298;53.638;9.876;2023-08-20T11:40:29;102075.56;;;26.78;52.24
56400;BME280;42298;53.638;9.876;2023-08-20T11:42:55;102076.28;;;26.86;51.71
56400;BME280;42298;53.638;9.876;2023-08-20T11:45:20;102079.25;;;26.96;52.78
56400;BME280;42298;53.638;9.876;2023-08-20T11:47:45;102072.84;;;27.02;51.28
56400;BME280;42298;53.638;9.876;2023-08-20T11:50:20;102078.66;;;27.06;52.23
56400;BME280;42298;53.638;9.876;2023-08-20T11:52:46;102074.84;;;27.07;49.81
56400;BME280;42298;53.638;9.876;2023-08-20T11:55:11;102080.53;;;27.05;50.48
56400;BME280;42298;53.638;9.876;2023-08-20T11:57:37;102077.00;;;26.93;49.67
56400;BME280;42298;53.638;9.876;2023-08-20T12:00:04;102072.47;;;26.87;50.60
56400;BME280;42298;53.638;9.876;2023-08-20T12:02:34;102068.78;;;26.81;50.65
56400;BME280;42298;53.638;9.876;2023-08-20T12:04:59;102068.31;;;26.84;49.82
56400;BME280;42298;53.638;9.876;2023-08-20T12:07:27;102075.31;;;26.92;51.12
56400;BME280;42298;53.638;9.876;2023-08-20T12:09:56;102077.81;;;26.93;50.69
56400;BME280;42298;53.638;9.876;2023-08-20T12:12:22;102068.81;;;26.93;49.59
56400;BME280;42298;53.638;9.876;2023-08-20T12:14:48;102072.13;;;26.83;50.39
56400;BME280;42298;53.638;9.876;2023-08-20T12:17:17;102066.53;;;26.90;50.94
56400;BME280;42298;53.638;9.876;2023-08-20T12:19:44;102060.94;;;27.08;50.36
56400;BME280;42298;53.638;9.876;2023-08-20T12:22:09;102061.19;;;27.07;50.13
56400;BME280;42298;53.638;9.876;2023-08-20T12:24:34;102062.00;;;27.07;49.38
56400;BME280;42298;53.638;9.876;2023-08-20T12:26:59;102071.75;;;26.91;49.79
56400;BME280;42298;53.638;9.876;2023-08-20T12:29:25;102068.56;;;26.82;49.78
56400;BME280;42298;53.638;9.876;2023-08-20T12:31:50;102064.28;;;26.75;50.19
56400;BME280;42298;53.638;9.876;2023-08-20T12:34:16;102057.03;;;26.80;50.48
56400;BME280;42298;53.638;9.876;2023-08-20T12:36:41;102061.91;;;27.02;49.40
56400;BME280;42298;53.638;9.876;2023-08-20T12:39:06;102060.09;;;27.08;49.46
56400;BME280;42298;53.638;9.876;2023-08-20T12:41:32;102066.53;;;27.01;48.84
56400;BME280;42298;53.638;9.876;2023-08-20T12:43:57;102059.78;;;26.92;49.56
56400;BME280;42298;53.638;9.876;2023-08-20T12:46:23;102056.06;;;26.98;49.42
56400;BME280;42298;53.638;9.876;2023-08-20T12:48:48;102054.53;;;26.91;50.12
56400;BME280;42298;53.638;9.876;2023-08-20T12:51:14;102053.13;;;26.88;50.26
56400;BME280;42298;53.638;9.876;2023-08-20T12:53:42;102055.97;;;26.93;49.58
56400;BME280;42298;53.638;9.876;2023-08-20T12:56:07;102054.78;;;26.89;50.05
56400;BME280;42298;53.638;9.876;2023-08-20T12:58:33;102048.34;;;26.95;50.14
56400;BME280;42298;53.638;9.876;2023-08-20T13:00:58;102058.09;;;27.15;50.68
56400;BME280;42298;53.638;9.876;2023-08-20T13:03:24;102052.25;;;27.35;48.98
56400;BME280;42298;53.638;9.876;2023-08-20T13:05:49;102054.50;;;27.38;49.32